Portada
METAR-TAF:

METAR-TAF

Aeroports :

Pakse, Laos

latitud: 15-08-02N, longitud: 105-46-55E, altitud: 107 m

Observació

L'informe es va fer fa 11 hores i 38 minuts, a les 12:00 UTC
Vent 2 kt del Sud-Est
Temperatura 35°C
Humitat 44%
Pressió 1007 hPa
Visibilitat: 6000 m
Núvols disperses a una alçada de 2000 ft
Núvols disperses a una alçada de 20000 ft

METAR: VLPS 291200Z 14002KT 6000 SCT020 SCT200 35/21 Q1007 NOSIG

Hora: 06:38 (23:38 UTC)

Pronòstic

L'informe es va fer fa 6 hores i 38 minuts, a les 17:00 UTC
Pronòstic vàlid del 29 a les 18 UTC al 30 a les 18 UTC
Vent 6 kt del Sud-Est
Visibilitat: 7000 m
Núvols disperses a una alçada de 2300 ft
Escasses núvols a una alçada de 20000 ft

TAF: VLPS 291700Z 2918/3018 14006KT 7000 SCT023 FEW200

Observacions i pronòstics meteorològics de més de 4000 aeroports (METAR i TAF).

Les estacions disponibles són els punts grocs i vermells al mapa.

Posi el ratolí al punt desitjat per veure el nom de l'estació.

Feu clic per veure les observacions i els pronòstics meteorològics.

Per canviar el mapa: feu clic els botons verds amb una creu de color negre per apropar; al botó verd amb un guió per allunyar la imatge; o en les fletxes verdes per a mapes adjacents.


METAR-TAF: